• Join FlightAware (Why Join?)
  • Login
  • US Flag 
10:41AM EDT


 

Airport Tracker/Info


-or-


 

Live Flight TrackerFlight Track Log ✈ N8KB ✈ 09-Jan-2014 ✈ KMYF - KSDL

Flight Track Log - Related Links

Times and Time Zones

All times are in EST time to prevent confusion due to time zone crossing. See the N8KB flight status page for this flight to view local times or setup timezone preferences in your user account.

Time Position Orientation Groundspeed Altitude Reporting Facility
EST Latitude Longitude Course Direction KTS MPH feet Rate Location/Type
01:52PM 32.8167 -117.1833 292° West 161 185 1,200  Level Southern California TRACON
01:53PM 32.8333 -117.2333 292° West 180 207 3,200 1,860 Climbing Southern California TRACON
01:54PM 32.8500 -117.2667 301° West 209 241 4,800 360 Climbing Southern California TRACON
01:55PM 32.8500 -117.1833 90° East 245 282 3,900 240 Descending Southern California TRACON
01:56PM 32.8275 -117.1208 113° Southeast 224 258 5,400 1,440 Climbing Los Angeles Center
01:57PM 32.8339 -117.0533 84° East 208 239 7,000 1,560 Climbing Los Angeles Center
01:58PM 32.8167 -116.9833 106° East 207 238 8,500 1,560 Climbing Southern California TRACON
02:00PM 32.7736 -116.8472 111° Southeast 209 241 12,000 1,440 Climbing Los Angeles Center
02:01PM 32.7597 -116.7822 104° East 206 237 13,300 840 Climbing Los Angeles Center
02:02PM 32.7631 -116.7089 87° East 218 251 14,000 300 Climbing Los Angeles Center
02:03PM 32.7619 -116.6047 91° East 264 304 14,000 -60 Level Los Angeles Center
02:04PM 32.7658 -116.4992 87° East 271 312 13,900 480 Descending Los Angeles Center
02:05PM 32.7622 -116.4142 93° East 266 306 15,000 1,020 Climbing Los Angeles Center
02:06PM 32.7614 -116.3372 91° East 244 281 16,100 1,320 Climbing Los Angeles Center
02:07PM 32.7622 -116.2647 89° East 226 260 17,800 1,620 Climbing Los Angeles Center
02:08PM 32.7608 -116.1889 91° East 196 226 19,500 1,440 Climbing Los Angeles Center
02:09PM 32.7561 -116.1225 95° East 201 231 20,800 720 Climbing Los Angeles Center
02:10PM 32.7575 -116.0475 89° East 225 259 21,000 60 Climbing Los Angeles Center
02:12PM 32.7556 -115.9564 91° East 269 310 21,000  Level Los Angeles Center
02:13PM 32.7558 -115.8614 90° East 285 328 21,000  Level Los Angeles Center
02:14PM 32.7531 -115.7453 92° East 293 337 21,000  Level Los Angeles Center
02:15PM 32.7514 -115.6486 91° East 293 337 21,000  Level Los Angeles Center
02:15PM 32.7508 -115.6178 91° East 296 341 21,000  Level Los Angeles Center
02:16PM 32.7481 -115.5503 93° East 297 342 21,000  Level Los Angeles Center
02:16PM 32.7494 -115.5297 85° East 296 341 21,000  Level Los Angeles Center
02:17PM 32.7506 -115.4308 89° East 294 338 21,000  Level Los Angeles Center
02:17PM 32.7469 -115.4533 259° West 296 341 21,000  Level Los Angeles Center
02:18PM 32.7539 -115.3339 86° East 293 337 21,000  Level Los Angeles Center
02:18PM 32.7525 -115.3375 245° Southwest 293 337 21,000  Level Los Angeles Center
02:19PM 32.7542 -115.2325 89° East 295 339 21,000  Level Los Angeles Center
02:19PM 32.7575 -115.2208 71° East 296 341 21,000  Level Los Angeles Center
02:20PM 32.7600 -115.1242 88° East 293 337 21,000  Level Los Angeles Center
02:21PM 32.7617 -115.0272 89° East 293 337 21,000  Level Los Angeles Center
02:22PM 32.7608 -114.9372 91° East 294 338 21,000  Level Los Angeles Center
02:22PM 32.7633 -114.9297 68° East 294 338 21,000  Level Los Angeles Center
02:23PM 32.7622 -114.8433 91° East 294 338 21,000  Level Los Angeles Center
02:23PM 32.7661 -114.8331 66° East 294 338 21,000  Level Los Angeles Center
02:24PM 32.7636 -114.7492 92° East 293 337 21,000  Level Los Angeles Center
02:24PM 32.7669 -114.7364 73° East 292 336 21,000  Level Los Angeles Center
02:25PM 32.7664 -114.6522 90° East 293 337 21,000  Level Los Angeles Center
02:25PM 32.7703 -114.6214 81° East 290 334 21,000  Level Los Angeles Center
02:26PM 32.7678 -114.5478 92° East 295 339 21,000  Level Los Angeles Center
02:26PM 32.7697 -114.5250 84° East 292 336 21,000 -840 Level Los Angeles Center
02:27PM 32.7686 -114.4514 91° East 302 348 20,200 -1,080 Descending Los Angeles Center
02:27PM 32.7711 -114.4250 84° East 302 348 19,900 -1,140 Descending Los Angeles Center
02:28PM 32.7697 -114.3472 91° East 323 372 19,100 -1,080 Descending Los Angeles Center
02:28PM 32.7742 -114.3181 80° East 322 371 18,800 -960 Descending Los Angeles Center
02:29PM 32.7806 -114.2122 86° East 322 371 17,800 -1,080 Descending Los Angeles Center
02:30PM 32.7781 -114.0869 91° East 317 365 16,600 -1,020 Descending Los Angeles Center
02:31PM 32.7781 -113.9836 90° East 314 361 15,700 -780 Descending Los Angeles Center
02:32PM 32.7886 -113.8794 83° East 305 351 15,000 -360 Descending Los Angeles Center
02:33PM 32.8039 -113.7869 79° East 288 331 15,000  Level Los Angeles Center
02:35PM 32.8167 -113.6978 80° East 276 318 15,000  Level Los Angeles Center
02:36PM 32.8561 -113.6261 57° Northeast 261 300 15,000  Level Los Angeles Center
02:36PM 32.8858 -113.5867 48° Northeast 260 299 15,000  Level Albuquerque Center
02:37PM 32.9447 -113.5128 46° Northeast 255 293 15,000  Level Albuquerque Center
02:38PM 33.0025 -113.4647 35° Northeast 250 288 15,000  Level Albuquerque Center
02:39PM 33.0592 -113.4144 37° Northeast 252 290 15,000  Level Albuquerque Center
02:40PM 33.1161 -113.3639 37° Northeast 252 290 15,000  Level Albuquerque Center
02:41PM 33.1731 -113.3142 36° Northeast 252 290 15,000  Level Albuquerque Center
02:42PM 33.2286 -113.2642 37° Northeast 251 289 15,000  Level Albuquerque Center
02:43PM 33.2867 -113.2142 36° Northeast 253 291 15,000  Level Albuquerque Center
02:44PM 33.3322 -113.1689 40° Northeast 260 299 15,000  Level Albuquerque Center
02:45PM 33.3531 -113.1508 36° Northeast 254 292 15,000  Level Albuquerque Center
02:45PM 33.3636 -113.1408 38° Northeast 254 292 15,000 -720 Level Albuquerque Center
02:46PM 33.4119 -113.1006 35° Northeast 256 295 14,300 -1,020 Descending Albuquerque Center
02:46PM 33.4322 -113.0808 39° Northeast 266 306 13,900 -1,200 Descending Albuquerque Center
02:47PM 33.4744 -113.0450 35° Northeast 267 307 13,100 -1,140 Descending Albuquerque Center
02:47PM 33.4925 -113.0228 46° Northeast 285 328 12,800 -1,020 Descending Albuquerque Center
02:48PM 33.5356 -112.9867 35° Northeast 274 315 12,100 -1,020 Descending Albuquerque Center
02:48PM 33.5614 -112.9653 35° Northeast 283 326 11,700 -1,020 Descending Albuquerque Center
02:49PM 33.5992 -112.9322 36° Northeast 278 320 11,100 -660 Descending Albuquerque Center
02:49PM 33.6128 -112.8811 72° East 283 326 11,000 -120 Descending Albuquerque Center
02:50PM 33.6189 -112.8397 80° East 305 351 11,000  Level Albuquerque Center
02:50PM 33.6250 -112.7914 81° East 265 305 11,000 -600 Level Albuquerque Center
02:51PM 33.6383 -112.7383 73° East 281 323 10,400 -900 Descending Albuquerque Center
02:51PM 33.6461 -112.7172 66° East 273 314 10,200 -900 Descending Albuquerque Center
02:52PM 33.6903 -112.6169 62° Northeast 274 315 9,100 -900 Descending Albuquerque Center
02:53PM 33.7083 -112.5744 63° Northeast 275 316 8,600 -900 Descending Albuquerque Center
02:54PM 33.7436 -112.4953 62° Northeast 269 310 7,700 -900 Descending Albuquerque Center
02:55PM 33.7789 -112.4186 61° Northeast 263 303 6,800 -840 Descending Albuquerque Center
02:56PM 33.7828 -112.3333 87° East 260 299 6,000 -480 Descending Albuquerque Center
02:57PM 33.7781 -112.2381 93° East 241 277 5,900  Descending Albuquerque Center
02:58PM 33.7775 -112.1619 90° East 230 265 6,000  Climbing Albuquerque Center
02:59PM 33.7742 -112.0872 93° East 226 260 6,000 -300 Level Albuquerque Center
03:00PM 33.7594 -112.0178 104° East 219 252 5,400 -900 Descending Albuquerque Center
03:01PM 33.7261 -111.9636 126° Southeast 202 232 4,200 -1,140 Descending Albuquerque Center
03:02PM 33.6883 -111.9122 131° Southeast 173 199 3,100 -840 Descending Albuquerque Center
03:03PM 33.6631 -111.8794 133° Southeast 153 176 2,500 -660 Descending Albuquerque Center
03:04PM 33.6375 -111.8944 206° Southwest 129 148 1,800 -720 Descending Albuquerque Center